sensor_id;sensor_type;location;lat;lon;timestamp;pressure;altitude;pressure_sealevel;temperature;humidity
84855;BME280;75112;42.668;23.356;2024-03-08T00:00:05;95322.56;;;6.04;79.99
84855;BME280;75112;42.668;23.356;2024-03-08T00:02:40;95284.63;;;5.68;80.68
84855;BME280;75112;42.668;23.356;2024-03-08T00:05:07;95319.34;;;6.02;80.78
84855;BME280;75112;42.668;23.356;2024-03-08T00:07:37;95318.00;;;6.06;79.86
84855;BME280;75112;42.668;23.356;2024-03-08T00:10:07;95307.13;;;6.04;79.76
84855;BME280;75112;42.668;23.356;2024-03-08T00:12:44;95305.72;;;6.16;79.89
84855;BME280;75112;42.668;23.356;2024-03-08T00:15:14;95304.28;;;5.98;80.14
84855;BME280;75112;42.668;23.356;2024-03-08T00:17:40;95317.56;;;6.02;79.95
84855;BME280;75112;42.668;23.356;2024-03-08T00:20:07;95286.59;;;5.81;80.50
84855;BME280;75112;42.668;23.356;2024-03-08T00:22:36;95304.31;;;5.90;80.24
84855;BME280;75112;42.668;23.356;2024-03-08T00:25:02;95296.13;;;5.72;79.38
84855;BME280;75112;42.668;23.356;2024-03-08T00:27:28;95304.66;;;5.87;79.98
84855;BME280;75112;42.668;23.356;2024-03-08T00:29:55;95291.03;;;5.87;80.21
84855;BME280;75112;42.668;23.356;2024-03-08T00:32:21;95293.25;;;5.90;80.17
84855;BME280;75112;42.668;23.356;2024-03-08T00:34:49;95293.72;;;5.93;79.54
84855;BME280;75112;42.668;23.356;2024-03-08T00:37:17;95299.97;;;5.91;80.07
84855;BME280;75112;42.668;23.356;2024-03-08T00:39:42;95292.41;;;5.97;80.52
84855;BME280;75112;42.668;23.356;2024-03-08T00:42:08;95294.59;;;5.86;80.16
84855;BME280;75112;42.668;23.356;2024-03-08T00:44:33;95298.00;;;5.78;81.75
84855;BME280;75112;42.668;23.356;2024-03-08T00:46:58;95294.28;;;6.04;80.23
84855;BME280;75112;42.668;23.356;2024-03-08T00:49:24;95282.75;;;6.14;79.79
84855;BME280;75112;42.668;23.356;2024-03-08T00:51:50;95270.91;;;6.13;78.98
84855;BME280;75112;42.668;23.356;2024-03-08T00:54:15;95250.91;;;5.86;80.56
84855;BME280;75112;42.668;23.356;2024-03-08T00:56:41;95262.13;;;5.85;79.91
84855;BME280;75112;42.668;23.356;2024-03-08T00:59:07;95285.59;;;6.05;79.85
84855;BME280;75112;42.668;23.356;2024-03-08T01:01:32;95282.59;;;6.16;80.44
84855;BME280;75112;42.668;23.356;2024-03-08T01:03:58;95278.59;;;6.13;80.51
84855;BME280;75112;42.668;23.356;2024-03-08T01:06:23;95264.31;;;5.96;80.27
84855;BME280;75112;42.668;23.356;2024-03-08T01:08:49;95264.19;;;5.89;79.79
84855;BME280;75112;42.668;23.356;2024-03-08T01:11:18;95260.41;;;5.85;79.96
84855;BME280;75112;42.668;23.356;2024-03-08T01:13:44;95247.44;;;5.78;81.07
84855;BME280;75112;42.668;23.356;2024-03-08T01:16:12;95252.13;;;5.75;79.86
84855;BME280;75112;42.668;23.356;2024-03-08T01:18:37;95253.75;;;5.76;80.37
84855;BME280;75112;42.668;23.356;2024-03-08T01:21:03;95250.00;;;5.78;80.31
84855;BME280;75112;42.668;23.356;2024-03-08T01:23:29;95260.19;;;5.72;79.64
84855;BME280;75112;42.668;23.356;2024-03-08T01:25:55;95233.06;;;5.69;79.67
84855;BME280;75112;42.668;23.356;2024-03-08T01:28:25;95250.53;;;5.74;81.32
84855;BME280;75112;42.668;23.356;2024-03-08T01:30:51;95230.03;;;5.51;80.52
84855;BME280;75112;42.668;23.356;2024-03-08T01:33:24;95260.25;;;6.02;79.87
84855;BME280;75112;42.668;23.356;2024-03-08T01:35:53;95255.91;;;6.02;79.12
84855;BME280;75112;42.668;23.356;2024-03-08T01:38:21;95257.53;;;5.80;80.64
84855;BME280;75112;42.668;23.356;2024-03-08T01:40:47;95245.22;;;5.61;81.05
84855;BME280;75112;42.668;23.356;2024-03-08T01:43:24;95259.13;;;5.81;80.53
84855;BME280;75112;42.668;23.356;2024-03-08T01:45:52;95265.19;;;5.88;80.70
84855;BME280;75112;42.668;23.356;2024-03-08T01:48:18;95242.03;;;5.73;81.31
84855;BME280;75112;42.668;23.356;2024-03-08T01:50:45;95240.56;;;5.79;80.37
84855;BME280;75112;42.668;23.356;2024-03-08T01:53:11;95250.56;;;5.89;80.25
84855;BME280;75112;42.668;23.356;2024-03-08T01:55:40;95230.00;;;5.74;80.47
84855;BME280;75112;42.668;23.356;2024-03-08T01:58:09;95251.53;;;5.88;80.57
84855;BME280;75112;42.668;23.356;2024-03-08T02:00:35;95226.28;;;5.76;79.56
84855;BME280;75112;42.668;23.356;2024-03-08T02:03:01;95231.50;;;5.83;79.92
84855;BME280;75112;42.668;23.356;2024-03-08T02:05:27;95254.00;;;5.81;80.48
84855;BME280;75112;42.668;23.356;2024-03-08T02:07:53;95229.78;;;5.46;80.02
84855;BME280;75112;42.668;23.356;2024-03-08T02:10:19;95230.25;;;5.64;80.04
84855;BME280;75112;42.668;23.356;2024-03-08T02:12:46;95249.91;;;5.72;80.22
84855;BME280;75112;42.668;23.356;2024-03-08T02:15:12;95253.28;;;5.72;79.93
84855;BME280;75112;42.668;23.356;2024-03-08T02:17:37;95253.47;;;5.71;80.07
84855;BME280;75112;42.668;23.356;2024-03-08T02:20:03;95233.69;;;5.57;79.84
84855;BME280;75112;42.668;23.356;2024-03-08T02:22:30;95246.53;;;5.94;78.42
84855;BME280;75112;42.668;23.356;2024-03-08T02:24:56;95252.72;;;6.00;77.29
84855;BME280;75112;42.668;23.356;2024-03-08T02:27:25;95252.09;;;5.98;77.57
84855;BME280;75112;42.668;23.356;2024-03-08T02:29:55;95243.25;;;6.01;78.00
84855;BME280;75112;42.668;23.356;2024-03-08T02:32:24;95245.47;;;6.04;76.81
84855;BME280;75112;42.668;23.356;2024-03-08T02:34:50;95264.00;;;5.91;76.28
84855;BME280;75112;42.668;23.356;2024-03-08T02:37:16;95268.03;;;5.93;77.05
84855;BME280;75112;42.668;23.356;2024-03-08T02:39:41;95231.84;;;5.65;76.73
84855;BME280;75112;42.668;23.356;2024-03-08T02:42:07;95272.81;;;5.96;77.20
84855;BME280;75112;42.668;23.356;2024-03-08T02:44:33;95264.59;;;6.01;77.26
84855;BME280;75112;42.668;23.356;2024-03-08T02:46:59;95263.69;;;5.94;77.91
84855;BME280;75112;42.668;23.356;2024-03-08T02:49:25;95256.97;;;5.93;76.33
84855;BME280;75112;42.668;23.356;2024-03-08T02:51:54;95263.22;;;5.90;76.58
84855;BME280;75112;42.668;23.356;2024-03-08T02:54:22;95262.69;;;5.80;76.38
84855;BME280;75112;42.668;23.356;2024-03-08T02:56:47;95273.47;;;5.75;76.62
84855;BME280;75112;42.668;23.356;2024-03-08T02:59:15;95275.97;;;5.84;76.78
84855;BME280;75112;42.668;23.356;2024-03-08T03:01:43;95257.19;;;5.83;76.06
84855;BME280;75112;42.668;23.356;2024-03-08T03:04:08;95267.63;;;5.82;75.67
84855;BME280;75112;42.668;23.356;2024-03-08T03:06:34;95277.09;;;5.81;74.63
84855;BME280;75112;42.668;23.356;2024-03-08T03:08:59;95277.56;;;5.85;74.36
84855;BME280;75112;42.668;23.356;2024-03-08T03:11:25;95269.69;;;5.86;73.39
84855;BME280;75112;42.668;23.356;2024-03-08T03:13:50;95275.19;;;5.83;73.64
84855;BME280;75112;42.668;23.356;2024-03-08T03:16:19;95271.50;;;5.63;73.75
84855;BME280;75112;42.668;23.356;2024-03-08T03:18:45;95284.47;;;5.46;74.18
84855;BME280;75112;42.668;23.356;2024-03-08T03:21:11;95267.00;;;5.42;72.83
84855;BME280;75112;42.668;23.356;2024-03-08T03:23:37;95265.31;;;5.34;74.19
84855;BME280;75112;42.668;23.356;2024-03-08T03:26:06;95269.97;;;5.53;75.10
84855;BME280;75112;42.668;23.356;2024-03-08T03:28:37;95259.44;;;5.48;73.28
84855;BME280;75112;42.668;23.356;2024-03-08T03:31:06;95285.38;;;5.53;74.00
84855;BME280;75112;42.668;23.356;2024-03-08T03:33:31;95287.03;;;5.46;74.43
84855;BME280;75112;42.668;23.356;2024-03-08T03:35:59;95290.94;;;5.57;73.52
84855;BME280;75112;42.668;23.356;2024-03-08T03:38:26;95286.09;;;5.62;73.04
84855;BME280;75112;42.668;23.356;2024-03-08T03:40:53;95271.69;;;5.61;72.30
84855;BME280;75112;42.668;23.356;2024-03-08T03:43:22;95281.75;;;5.63;71.76
84855;BME280;75112;42.668;23.356;2024-03-08T03:45:48;95284.97;;;5.65;72.43
84855;BME280;75112;42.668;23.356;2024-03-08T03:48:13;95260.72;;;5.44;72.82
84855;BME280;75112;42.668;23.356;2024-03-08T03:50:39;95281.38;;;5.51;73.14
84855;BME280;75112;42.668;23.356;2024-03-08T03:53:04;95298.59;;;5.65;71.14
84855;BME280;75112;42.668;23.356;2024-03-08T03:55:33;95292.91;;;5.55;72.79
84855;BME280;75112;42.668;23.356;2024-03-08T04:01:17;95306.84;;;5.75;72.40
84855;BME280;75112;42.668;23.356;2024-03-08T04:03:44;95304.03;;;5.70;71.82
84855;BME280;75112;42.668;23.356;2024-03-08T04:06:09;95302.31;;;5.63;71.82
84855;BME280;75112;42.668;23.356;2024-03-08T04:08:35;95306.25;;;5.50;72.01
84855;BME280;75112;42.668;23.356;2024-03-08T04:11:01;95306.94;;;5.44;72.31
84855;BME280;75112;42.668;23.356;2024-03-08T04:13:26;95308.75;;;5.59;72.96
84855;BME280;75112;42.668;23.356;2024-03-08T04:15:52;95313.38;;;5.63;72.42
84855;BME280;75112;42.668;23.356;2024-03-08T04:18:18;95314.41;;;5.54;69.89
84855;BME280;75112;42.668;23.356;2024-03-08T04:20:44;95330.69;;;5.46;71.71
84855;BME280;75112;42.668;23.356;2024-03-08T04:23:09;95317.63;;;5.33;72.09
84855;BME280;75112;42.668;23.356;2024-03-08T04:25:35;95304.94;;;5.08;73.37
84855;BME280;75112;42.668;23.356;2024-03-08T04:28:00;95332.50;;;5.15;74.46
84855;BME280;75112;42.668;23.356;2024-03-08T04:30:25;95323.69;;;5.32;73.17
84855;BME280;75112;42.668;23.356;2024-03-08T04:32:53;95320.00;;;5.12;73.27
84855;BME280;75112;42.668;23.356;2024-03-08T04:35:19;95329.75;;;5.16;74.36
84855;BME280;75112;42.668;23.356;2024-03-08T04:37:45;95330.19;;;5.20;73.51
84855;BME280;75112;42.668;23.356;2024-03-08T04:40:11;95349.53;;;5.53;73.33
84855;BME280;75112;42.668;23.356;2024-03-08T04:42:37;95335.97;;;5.45;72.20
84855;BME280;75112;42.668;23.356;2024-03-08T04:45:04;95350.88;;;5.49;72.54
84855;BME280;75112;42.668;23.356;2024-03-08T04:47:30;95340.41;;;5.28;73.79
84855;BME280;75112;42.668;23.356;2024-03-08T04:49:56;95337.63;;;5.15;73.03
84855;BME280;75112;42.668;23.356;2024-03-08T04:52:22;95355.81;;;5.28;74.64
84855;BME280;75112;42.668;23.356;2024-03-08T04:54:47;95355.22;;;5.49;73.35
84855;BME280;75112;42.668;23.356;2024-03-08T04:57:13;95357.34;;;5.60;72.19
84855;BME280;75112;42.668;23.356;2024-03-08T04:59:39;95349.28;;;5.48;71.86
84855;BME280;75112;42.668;23.356;2024-03-08T05:02:05;95362.19;;;5.32;72.43
84855;BME280;75112;42.668;23.356;2024-03-08T05:04:32;95359.34;;;5.27;73.93
84855;BME280;75112;42.668;23.356;2024-03-08T05:06:57;95357.66;;;5.42;73.64
84855;BME280;75112;42.668;23.356;2024-03-08T05:09:27;95367.09;;;5.42;73.13
84855;BME280;75112;42.668;23.356;2024-03-08T05:11:54;95348.63;;;5.23;73.05
84855;BME280;75112;42.668;23.356;2024-03-08T05:14:19;95370.66;;;5.41;72.83
84855;BME280;75112;42.668;23.356;2024-03-08T05:16:46;95379.16;;;5.41;73.54
84855;BME280;75112;42.668;23.356;2024-03-08T05:19:18;95357.47;;;5.44;73.78
84855;BME280;75112;42.668;23.356;2024-03-08T05:21:47;95387.44;;;5.51;74.52
84855;BME280;75112;42.668;23.356;2024-03-08T05:24:13;95379.41;;;5.54;74.06
84855;BME280;75112;42.668;23.356;2024-03-08T05:26:39;95383.78;;;5.46;74.12
84855;BME280;75112;42.668;23.356;2024-03-08T05:29:05;95387.16;;;5.46;74.58
84855;BME280;75112;42.668;23.356;2024-03-08T05:31:38;95387.19;;;5.38;74.20
84855;BME280;75112;42.668;23.356;2024-03-08T05:34:08;95399.56;;;5.35;76.04
84855;BME280;75112;42.668;23.356;2024-03-08T05:36:35;95403.22;;;5.09;75.64
84855;BME280;75112;42.668;23.356;2024-03-08T05:39:00;95406.09;;;5.14;76.32
84855;BME280;75112;42.668;23.356;2024-03-08T05:41:26;95396.22;;;4.95;77.42
84855;BME280;75112;42.668;23.356;2024-03-08T05:43:51;95391.53;;;4.98;76.64
84855;BME280;75112;42.668;23.356;2024-03-08T05:46:16;95410.41;;;5.14;77.31
84855;BME280;75112;42.668;23.356;2024-03-08T05:48:43;95396.88;;;5.28;76.79
84855;BME280;75112;42.668;23.356;2024-03-08T05:51:09;95392.78;;;5.42;76.19
84855;BME280;75112;42.668;23.356;2024-03-08T05:53:34;95422.56;;;5.51;76.23
84855;BME280;75112;42.668;23.356;2024-03-08T05:55:59;95409.19;;;5.32;77.35
84855;BME280;75112;42.668;23.356;2024-03-08T05:58:27;95429.94;;;5.23;76.86
84855;BME280;75112;42.668;23.356;2024-03-08T06:00:55;95422.63;;;5.12;78.50
84855;BME280;75112;42.668;23.356;2024-03-08T06:03:21;95409.25;;;4.85;77.07
84855;BME280;75112;42.668;23.356;2024-03-08T06:05:48;95414.91;;;4.64;77.31
84855;BME280;75112;42.668;23.356;2024-03-08T06:08:13;95438.41;;;4.84;77.53
84855;BME280;75112;42.668;23.356;2024-03-08T06:10:41;95444.75;;;4.41;77.60
84855;BME280;75112;42.668;23.356;2024-03-08T06:13:06;95436.91;;;4.26;78.23
84855;BME280;75112;42.668;23.356;2024-03-08T06:15:32;95453.25;;;4.41;78.03
84855;BME280;75112;42.668;23.356;2024-03-08T06:17:57;95452.13;;;4.35;78.62
84855;BME280;75112;42.668;23.356;2024-03-08T06:20:22;95455.31;;;4.29;78.75
84855;BME280;75112;42.668;23.356;2024-03-08T06:22:51;95447.47;;;4.31;78.89
84855;BME280;75112;42.668;23.356;2024-03-08T06:25:17;95454.19;;;4.40;78.16
84855;BME280;75112;42.668;23.356;2024-03-08T06:27:42;95462.81;;;4.64;78.31
84855;BME280;75112;42.668;23.356;2024-03-08T06:30:09;95467.78;;;4.65;78.18
84855;BME280;75112;42.668;23.356;2024-03-08T06:32:38;95461.84;;;4.65;78.40
84855;BME280;75112;42.668;23.356;2024-03-08T06:35:07;95446.50;;;4.48;77.52
84855;BME280;75112;42.668;23.356;2024-03-08T06:37:33;95450.97;;;4.63;77.63
84855;BME280;75112;42.668;23.356;2024-03-08T06:39:59;95465.22;;;4.57;77.49
84855;BME280;75112;42.668;23.356;2024-03-08T06:42:26;95466.31;;;4.87;77.07
84855;BME280;75112;42.668;23.356;2024-03-08T06:44:52;95450.88;;;4.95;74.61
84855;BME280;75112;42.668;23.356;2024-03-08T06:47:20;95464.94;;;5.07;73.49
84855;BME280;75112;42.668;23.356;2024-03-08T06:49:46;95449.94;;;4.96;74.49
84855;BME280;75112;42.668;23.356;2024-03-08T06:52:11;95470.31;;;5.29;73.60
84855;BME280;75112;42.668;23.356;2024-03-08T06:54:37;95444.47;;;4.99;73.40
84855;BME280;75112;42.668;23.356;2024-03-08T06:57:03;95465.03;;;5.30;71.41
84855;BME280;75112;42.668;23.356;2024-03-08T06:59:29;95460.06;;;5.29;71.81
84855;BME280;75112;42.668;23.356;2024-03-08T07:01:54;95449.53;;;5.07;71.24
84855;BME280;75112;42.668;23.356;2024-03-08T07:04:20;95468.38;;;5.31;72.57
84855;BME280;75112;42.668;23.356;2024-03-08T07:06:47;95476.94;;;5.23;71.67
84855;BME280;75112;42.668;23.356;2024-03-08T07:09:15;95477.66;;;5.40;70.99
84855;BME280;75112;42.668;23.356;2024-03-08T07:11:42;95471.66;;;5.17;72.26
84855;BME280;75112;42.668;23.356;2024-03-08T07:14:07;95479.88;;;5.04;72.88
84855;BME280;75112;42.668;23.356;2024-03-08T07:16:34;95469.69;;;5.27;72.08
84855;BME280;75112;42.668;23.356;2024-03-08T07:19:01;95482.63;;;5.02;71.99
84855;BME280;75112;42.668;23.356;2024-03-08T07:21:26;95478.16;;;4.88;72.31
84855;BME280;75112;42.668;23.356;2024-03-08T07:23:52;95481.97;;;4.92;72.60
84855;BME280;75112;42.668;23.356;2024-03-08T07:26:26;95463.03;;;5.01;72.12
84855;BME280;75112;42.668;23.356;2024-03-08T07:28:51;95474.25;;;5.08;72.87
84855;BME280;75112;42.668;23.356;2024-03-08T07:31:17;95482.66;;;5.34;70.97
84855;BME280;75112;42.668;23.356;2024-03-08T07:34:03;95491.75;;;5.44;71.18
84855;BME280;75112;42.668;23.356;2024-03-08T07:36:33;95474.84;;;5.58;71.77
84855;BME280;75112;42.668;23.356;2024-03-08T07:38:58;95476.16;;;5.85;69.65
84855;BME280;75112;42.668;23.356;2024-03-08T07:41:24;95497.19;;;5.81;71.23
84855;BME280;75112;42.668;23.356;2024-03-08T07:43:49;95484.19;;;5.82;70.03
84855;BME280;75112;42.668;23.356;2024-03-08T07:46:15;95472.75;;;5.93;69.47
84855;BME280;75112;42.668;23.356;2024-03-08T07:48:43;95494.09;;;5.93;69.08
84855;BME280;75112;42.668;23.356;2024-03-08T07:51:10;95496.44;;;5.72;70.73
84855;BME280;75112;42.668;23.356;2024-03-08T07:53:37;95482.81;;;5.32;70.93
84855;BME280;75112;42.668;23.356;2024-03-08T07:56:03;95470.13;;;4.83;72.86
84855;BME280;75112;42.668;23.356;2024-03-08T07:58:30;95490.63;;;5.47;73.47
84855;BME280;75112;42.668;23.356;2024-03-08T08:00:55;95459.75;;;5.86;70.99
84855;BME280;75112;42.668;23.356;2024-03-08T08:03:21;95494.22;;;6.23;70.71
84855;BME280;75112;42.668;23.356;2024-03-08T08:05:47;95475.94;;;6.18;70.58
84855;BME280;75112;42.668;23.356;2024-03-08T08:08:14;95489.78;;;6.17;70.73
84855;BME280;75112;42.668;23.356;2024-03-08T08:10:40;95465.72;;;6.33;69.07
84855;BME280;75112;42.668;23.356;2024-03-08T08:13:05;95475.84;;;6.34;68.84
84855;BME280;75112;42.668;23.356;2024-03-08T08:15:31;95496.63;;;6.48;68.92
84855;BME280;75112;42.668;23.356;2024-03-08T08:17:56;95463.81;;;6.50;67.74
84855;BME280;75112;42.668;23.356;2024-03-08T08:20:22;95459.91;;;6.54;66.39
84855;BME280;75112;42.668;23.356;2024-03-08T08:22:48;95471.44;;;6.58;68.10
84855;BME280;75112;42.668;23.356;2024-03-08T08:25:14;95488.81;;;6.56;68.21
84855;BME280;75112;42.668;23.356;2024-03-08T08:27:45;95483.59;;;6.26;68.08
84855;BME280;75112;42.668;23.356;2024-03-08T08:30:11;95487.97;;;6.78;67.94
84855;BME280;75112;42.668;23.356;2024-03-08T08:32:37;95491.38;;;7.23;66.60
84855;BME280;75112;42.668;23.356;2024-03-08T08:35:05;95487.63;;;7.41;65.84
84855;BME280;75112;42.668;23.356;2024-03-08T08:37:31;95487.91;;;7.31;64.03
84855;BME280;75112;42.668;23.356;2024-03-08T08:39:57;95473.63;;;7.28;65.71
84855;BME280;75112;42.668;23.356;2024-03-08T08:42:23;95485.56;;;7.66;63.83
84855;BME280;75112;42.668;23.356;2024-03-08T08:44:48;95480.16;;;7.60;65.84
84855;BME280;75112;42.668;23.356;2024-03-08T08:47:16;95468.97;;;7.53;62.68
84855;BME280;75112;42.668;23.356;2024-03-08T08:49:44;95475.91;;;7.23;63.84
84855;BME280;75112;42.668;23.356;2024-03-08T08:52:11;95476.56;;;7.76;63.56
84855;BME280;75112;42.668;23.356;2024-03-08T08:54:36;95458.03;;;8.09;60.87
84855;BME280;75112;42.668;23.356;2024-03-08T08:57:02;95472.53;;;7.08;62.12
84855;BME280;75112;42.668;23.356;2024-03-08T08:59:32;95475.91;;;7.53;63.12
84855;BME280;75112;42.668;23.356;2024-03-08T09:01:57;95464.81;;;8.10;62.49
84855;BME280;75112;42.668;23.356;2024-03-08T09:04:23;95460.31;;;8.40;59.64
84855;BME280;75112;42.668;23.356;2024-03-08T09:06:48;95471.97;;;8.58;57.95
84855;BME280;75112;42.668;23.356;2024-03-08T09:09:14;95460.31;;;8.90;61.14
84855;BME280;75112;42.668;23.356;2024-03-08T09:11:39;95453.69;;;9.15;58.00
84855;BME280;75112;42.668;23.356;2024-03-08T09:14:08;95450.16;;;9.78;54.88
84855;BME280;75112;42.668;23.356;2024-03-08T09:16:34;95458.53;;;9.32;55.64
84855;BME280;75112;42.668;23.356;2024-03-08T09:18:59;95451.44;;;8.99;55.67
84855;BME280;75112;42.668;23.356;2024-03-08T09:21:25;95458.06;;;9.15;58.46
84855;BME280;75112;42.668;23.356;2024-03-08T09:23:52;95452.56;;;8.90;57.60
84855;BME280;75112;42.668;23.356;2024-03-08T09:26:18;95461.44;;;9.15;56.26
84855;BME280;75112;42.668;23.356;2024-03-08T09:28:44;95451.28;;;9.55;57.82
84855;BME280;75112;42.668;23.356;2024-03-08T09:31:10;95462.19;;;9.09;55.73
84855;BME280;75112;42.668;23.356;2024-03-08T09:33:36;95439.41;;;9.67;57.21
84855;BME280;75112;42.668;23.356;2024-03-08T09:36:02;95447.44;;;10.06;54.46
84855;BME280;75112;42.668;23.356;2024-03-08T09:38:29;95449.81;;;8.98;56.46
84855;BME280;75112;42.668;23.356;2024-03-08T09:40:54;95443.75;;;8.78;58.06
84855;BME280;75112;42.668;23.356;2024-03-08T09:43:22;95457.03;;;8.74;60.89
84855;BME280;75112;42.668;23.356;2024-03-08T09:45:49;95443.72;;;9.06;58.43
84855;BME280;75112;42.668;23.356;2024-03-08T09:48:17;95455.53;;;9.28;58.50
84855;BME280;75112;42.668;23.356;2024-03-08T09:50:44;95456.53;;;9.82;57.03
84855;BME280;75112;42.668;23.356;2024-03-08T09:53:11;95445.66;;;9.45;57.33
84855;BME280;75112;42.668;23.356;2024-03-08T09:55:37;95456.31;;;9.77;57.15
84855;BME280;75112;42.668;23.356;2024-03-08T09:58:05;95461.22;;;10.33;55.44
84855;BME280;75112;42.668;23.356;2024-03-08T10:00:54;95455.88;;;10.48;55.88
84855;BME280;75112;42.668;23.356;2024-03-08T10:03:23;95446.66;;;10.25;53.39
84855;BME280;75112;42.668;23.356;2024-03-08T10:05:49;95435.72;;;10.10;53.79
84855;BME280;75112;42.668;23.356;2024-03-08T10:08:14;95453.88;;;9.55;52.50
84855;BME280;75112;42.668;23.356;2024-03-08T10:10:39;95461.69;;;9.75;53.45
84855;BME280;75112;42.668;23.356;2024-03-08T10:13:09;95455.25;;;10.46;53.37
84855;BME280;75112;42.668;23.356;2024-03-08T10:15:36;95443.47;;;10.23;53.44
84855;BME280;75112;42.668;23.356;2024-03-08T10:18:01;95449.78;;;11.27;52.36
84855;BME280;75112;42.668;23.356;2024-03-08T10:20:31;95434.16;;;11.85;48.45
84855;BME280;75112;42.668;23.356;2024-03-08T10:23:05;95433.06;;;11.10;49.50
84855;BME280;75112;42.668;23.356;2024-03-08T10:25:32;95455.06;;;10.60;51.83
84855;BME280;75112;42.668;23.356;2024-03-08T10:27:58;95445.03;;;9.98;52.05
84855;BME280;75112;42.668;23.356;2024-03-08T10:30:23;95449.91;;;9.66;52.88
84855;BME280;75112;42.668;23.356;2024-03-08T10:32:49;95454.94;;;9.81;54.20
84855;BME280;75112;42.668;23.356;2024-03-08T10:35:15;95425.31;;;9.90;50.64
84855;BME280;75112;42.668;23.356;2024-03-08T10:37:49;95450.91;;;9.65;53.18
84855;BME280;75112;42.668;23.356;2024-03-08T10:40:24;95426.75;;;10.86;50.98
84855;BME280;75112;42.668;23.356;2024-03-08T10:47:49;95429.50;;;12.01;47.34
84855;BME280;75112;42.668;23.356;2024-03-08T10:50:19;95428.09;;;12.05;49.16
84855;BME280;75112;42.668;23.356;2024-03-08T10:52:51;95432.81;;;11.76;47.49
84855;BME280;75112;42.668;23.356;2024-03-08T10:55:18;95432.88;;;11.04;49.73
84855;BME280;75112;42.668;23.356;2024-03-08T10:57:45;95430.16;;;10.40;49.85
84855;BME280;75112;42.668;23.356;2024-03-08T11:00:12;95431.19;;;10.39;50.60
84855;BME280;75112;42.668;23.356;2024-03-08T11:02:38;95417.22;;;10.53;51.07
84855;BME280;75112;42.668;23.356;2024-03-08T11:05:04;95427.53;;;10.00;51.88
84855;BME280;75112;42.668;23.356;2024-03-08T11:07:34;95412.03;;;10.13;52.84
84855;BME280;75112;42.668;23.356;2024-03-08T11:10:02;95393.16;;;10.19;51.71
84855;BME280;75112;42.668;23.356;2024-03-08T11:12:36;95403.69;;;10.57;52.68
84855;BME280;75112;42.668;23.356;2024-03-08T11:15:12;95406.00;;;11.05;50.12
84855;BME280;75112;42.668;23.356;2024-03-08T11:20:10;95396.59;;;11.18;51.66
84855;BME280;75112;42.668;23.356;2024-03-08T11:22:42;95406.41;;;11.47;48.32
84855;BME280;75112;42.668;23.356;2024-03-08T11:25:37;95403.47;;;11.37;49.25
84855;BME280;75112;42.668;23.356;2024-03-08T11:28:22;95398.81;;;12.48;47.05
84855;BME280;75112;42.668;23.356;2024-03-08T11:33:24;95393.16;;;11.69;48.96
84855;BME280;75112;42.668;23.356;2024-03-08T11:35:52;95384.94;;;12.35;47.20
84855;BME280;75112;42.668;23.356;2024-03-08T11:38:17;95382.56;;;12.96;42.99
84855;BME280;75112;42.668;23.356;2024-03-08T11:40:46;95382.63;;;13.07;42.66
84855;BME280;75112;42.668;23.356;2024-03-08T11:43:16;95387.75;;;13.14;44.47
84855;BME280;75112;42.668;23.356;2024-03-08T11:45:41;95370.94;;;12.36;44.79
84855;BME280;75112;42.668;23.356;2024-03-08T11:48:07;95376.41;;;12.53;44.01
84855;BME280;75112;42.668;23.356;2024-03-08T11:50:32;95378.72;;;11.41;44.47
84855;BME280;75112;42.668;23.356;2024-03-08T11:53:02;95389.34;;;11.71;47.44
84855;BME280;75112;42.668;23.356;2024-03-08T11:55:29;95372.28;;;11.95;47.43
84855;BME280;75112;42.668;23.356;2024-03-08T11:58:05;95387.13;;;12.13;46.40
84855;BME280;75112;42.668;23.356;2024-03-08T12:00:33;95382.13;;;12.37;43.85
84855;BME280;75112;42.668;23.356;2024-03-08T12:03:04;95374.59;;;12.04;46.40
84855;BME280;75112;42.668;23.356;2024-03-08T12:05:30;95379.38;;;12.07;46.01
84855;BME280;75112;42.668;23.356;2024-03-08T12:07:59;95373.56;;;11.41;44.38
84855;BME280;75112;42.668;23.356;2024-03-08T12:10:25;95373.69;;;11.15;47.53
84855;BME280;75112;42.668;23.356;2024-03-08T12:12:55;95366.25;;;11.25;46.58
84855;BME280;75112;42.668;23.356;2024-03-08T12:15:24;95374.22;;;12.25;46.54
84855;BME280;75112;42.668;23.356;2024-03-08T12:17:51;95370.31;;;13.03;42.63
84855;BME280;75112;42.668;23.356;2024-03-08T12:22:44;95379.91;;;13.69;45.71
84855;BME280;75112;42.668;23.356;2024-03-08T12:25:13;95363.41;;;13.75;40.44
84855;BME280;75112;42.668;23.356;2024-03-08T12:27:39;95371.44;;;13.44;43.44
84855;BME280;75112;42.668;23.356;2024-03-08T12:30:24;95367.03;;;12.71;44.00
84855;BME280;75112;42.668;23.356;2024-03-08T12:32:56;95363.22;;;12.92;43.07
84855;BME280;75112;42.668;23.356;2024-03-08T12:35:23;95359.06;;;13.27;39.95
84855;BME280;75112;42.668;23.356;2024-03-08T12:37:53;95362.97;;;12.38;42.05
84855;BME280;75112;42.668;23.356;2024-03-08T12:40:25;95355.88;;;12.70;43.95
84855;BME280;75112;42.668;23.356;2024-03-08T12:42:52;95362.94;;;12.81;45.34
84855;BME280;75112;42.668;23.356;2024-03-08T12:45:17;95345.03;;;12.11;44.58
84855;BME280;75112;42.668;23.356;2024-03-08T12:47:42;95355.09;;;12.26;45.90
84855;BME280;75112;42.668;23.356;2024-03-08T12:50:10;95348.28;;;12.25;43.35
84855;BME280;75112;42.668;23.356;2024-03-08T12:52:35;95350.81;;;11.43;46.17
84855;BME280;75112;42.668;23.356;2024-03-08T12:55:02;95353.16;;;12.15;46.74
84855;BME280;75112;42.668;23.356;2024-03-08T12:57:28;95345.63;;;12.07;45.11
84855;BME280;75112;42.668;23.356;2024-03-08T12:59:53;95342.81;;;12.95;43.01
84855;BME280;75112;42.668;23.356;2024-03-08T13:02:19;95332.50;;;12.70;44.04
84855;BME280;75112;42.668;23.356;2024-03-08T13:04:45;95351.09;;;13.41;44.27
84855;BME280;75112;42.668;23.356;2024-03-08T13:07:11;95342.28;;;13.05;43.93
84855;BME280;75112;42.668;23.356;2024-03-08T13:09:36;95345.91;;;12.24;42.22
84855;BME280;75112;42.668;23.356;2024-03-08T13:12:03;95354.22;;;12.94;43.55